Time;durP1;ratioP1;P1;durP2;ratioP2;P2;SDS_P1;SDS_P2;PMS_P1;PMS_P2;Temp;Humidity;BMP_temperature;BMP_pressure;BME280_temperature;BME280_humidity;BME280_pressure;Samples;Min_cycle;Max_cycle;Signal;HPM_P1;HPM_P2
2022/08/28 00:00:58;;;;;;;15.70;7.30;;;;;;;23.14;48.42;100042.77;1726170;82;21163;-71
2022/08/28 00:03:24;;;;;;;13.90;7.20;;;;;;;23.14;48.03;100042.77;1711275;82;21772;-71
2022/08/28 00:05:51;;;;;;;16.67;7.20;;;;;;;23.10;47.69;100037.81;1697935;84;21020;-69
2022/08/28 00:08:17;;;;;;;14.07;7.40;;;;;;;23.08;47.40;100041.45;1700758;83;21539;-68
2022/08/28 00:10:44;;;;;;;14.33;7.63;;;;;;;23.11;47.44;100042.68;1716556;82;21070;-68
2022/08/28 00:13:17;;;;;;;14.27;7.43;;;;;;;23.14;47.83;100044.70;1702946;82;21151;-68
2022/08/28 00:15:48;;;;;;;15.37;7.40;;;;;;;23.16;47.80;100048.66;1711565;83;21526;-68
2022/08/28 00:18:16;;;;;;;15.23;7.70;;;;;;;23.18;47.85;100061.91;1714427;82;21656;-68
2022/08/28 00:20:43;;;;;;;17.03;7.40;;;;;;;23.16;48.03;100060.91;1722330;82;21594;-68
2022/08/28 00:23:18;;;;;;;15.60;7.13;;;;;;;23.15;48.07;100067.48;1724784;82;21102;-69
2022/08/28 00:25:48;;;;;;;13.33;6.73;;;;;;;23.12;48.70;100065.47;1698421;82;21102;-69
2022/08/28 00:28:17;;;;;;;13.37;7.60;;;;;;;23.04;49.22;100058.29;1694719;82;21078;-69
2022/08/28 00:30:50;;;;;;;17.37;7.43;;;;;;;23.01;49.28;100052.18;1712965;82;21542;-70
2022/08/28 00:33:31;;;;;;;11.73;6.58;;;;;;;23.02;49.29;100044.80;1716880;82;21553;-69
2022/08/28 00:36:00;;;;;;;13.17;7.17;;;;;;;22.99;49.08;100035.39;1727724;82;20961;-69
2022/08/28 00:38:30;;;;;;;13.87;6.67;;;;;;;22.90;49.43;100032.02;1700267;83;21137;-69
2022/08/28 00:41:01;;;;;;;15.63;6.20;;;;;;;22.81;49.48;100029.50;1710638;83;20983;-70
2022/08/28 00:46:51;;;;;;;17.60;6.67;;;;;;;22.74;49.33;100029.88;1697363;83;21044;-68
2022/08/28 00:49:25;;;;;;;15.83;6.40;;;;;;;22.70;49.58;100026.52;1693935;84;20975;-69
2022/08/28 00:52:04;;;;;;;15.83;6.00;;;;;;;22.68;49.84;100027.44;1708647;82;21147;-69
2022/08/28 00:54:32;;;;;;;13.60;6.17;;;;;;;22.68;50.19;100031.52;1692805;83;21043;-69
2022/08/28 00:57:05;;;;;;;15.10;6.50;;;;;;;22.66;50.18;100025.62;1701089;84;21047;-69
2022/08/28 00:59:32;;;;;;;17.63;6.93;;;;;;;22.65;50.18;100019.97;1712695;83;21566;-69
2022/08/28 01:01:59;;;;;;;20.53;6.67;;;;;;;22.69;49.68;100021.41;1702881;83;21077;-69
2022/08/28 01:04:28;;;;;;;14.37;6.63;;;;;;;22.69;49.53;100013.25;1713552;83;21194;-69
2022/08/28 01:06:55;;;;;;;16.47;6.27;;;;;;;22.69;49.60;100010.53;1710930;83;21111;-69
2022/08/28 01:09:26;;;;;;;16.87;6.40;;;;;;;22.62;49.26;100002.19;1701041;82;21605;-70
2022/08/28 01:12:02;;;;;;;13.33;6.10;;;;;;;22.66;49.58;99999.77;1710790;82;21121;-69
2022/08/28 01:14:33;;;;;;;15.73;5.93;;;;;;;22.70;49.59;99994.41;1713326;83;21043;-70
2022/08/28 01:16:58;;;;;;;18.87;5.80;;;;;;;22.75;49.19;99990.06;1709661;83;21133;-71
2022/08/28 01:19:32;;;;;;;19.60;6.10;;;;;;;22.79;48.85;99980.05;1713351;83;21071;-70
2022/08/28 01:22:30;;;;;;;22.57;6.87;;;;;;;22.85;48.92;99984.08;1711021;83;20960;-72
2022/08/28 01:24:59;;;;;;;17.07;5.87;;;;;;;22.92;48.79;99986.17;1715268;83;21031;-71
2022/08/28 01:27:26;;;;;;;14.00;5.70;;;;;;;22.96;48.75;99984.92;1700873;83;21058;-70
2022/08/28 01:29:54;;;;;;;14.37;6.50;;;;;;;23.01;48.72;99980.00;1707359;83;21159;-69
2022/08/28 01:32:37;;;;;;;14.80;5.87;;;;;;;23.03;48.92;99976.33;1716837;82;21047;-69
2022/08/28 01:35:07;;;;;;;17.90;6.50;;;;;;;23.00;49.11;99969.45;1700920;83;21584;-69
2022/08/28 01:37:34;;;;;;;18.50;6.20;;;;;;;22.99;49.40;99958.34;1704735;83;21007;-69
2022/08/28 01:40:03;;;;;;;16.03;5.63;;;;;;;22.98;49.78;99952.11;1716305;82;21043;-70
2022/08/28 01:42:32;;;;;;;15.47;5.77;;;;;;;22.98;49.93;99952.11;1713546;83;22252;-70
2022/08/28 01:44:59;;;;;;;18.30;6.23;;;;;;;22.94;50.04;99951.25;1673316;85;20992;-70
2022/08/28 01:47:25;;;;;;;15.90;5.60;;;;;;;22.93;50.21;99946.93;1696437;83;21055;-68
2022/08/28 01:49:52;;;;;;;16.27;5.33;;;;;;;22.96;50.41;99946.80;1711608;83;21099;-69
2022/08/28 01:52:18;;;;;;;15.07;5.47;;;;;;;22.95;50.42;99944.65;1707867;82;21439;-69
2022/08/28 01:54:45;;;;;;;16.30;5.53;;;;;;;22.96;50.36;99943.50;1716624;83;21255;-70
2022/08/28 01:57:11;;;;;;;16.47;5.60;;;;;;;22.94;50.47;99945.23;1711322;83;21158;-70
2022/08/28 01:59:38;;;;;;;16.37;5.90;;;;;;;22.94;50.18;99940.36;1702866;82;21047;-70
2022/08/28 02:02:04;;;;;;;19.80;5.80;;;;;;;22.98;49.82;99933.63;1712862;82;21515;-69
2022/08/28 02:04:31;;;;;;;19.33;5.60;;;;;;;22.97;49.69;99935.56;1714740;83;21529;-70
2022/08/28 02:06:58;;;;;;;15.40;5.67;;;;;;;22.99;49.62;99933.26;1709416;83;21135;-68
2022/08/28 02:09:26;;;;;;;11.83;4.83;;;;;;;23.01;49.69;99936.42;1704867;83;21081;-68
2022/08/28 02:11:53;;;;;;;20.77;5.57;;;;;;;23.02;50.18;99935.84;1708492;83;21542;-69
2022/08/28 02:14:21;;;;;;;18.13;5.53;;;;;;;23.08;49.96;99935.21;1709150;83;21004;-69
2022/08/28 02:16:48;;;;;;;13.47;5.20;;;;;;;23.11;49.70;99939.95;1687383;85;21118;-69
2022/08/28 02:19:15;;;;;;;13.00;5.53;;;;;;;23.06;49.69;99934.77;1689526;83;21922;-69
2022/08/28 02:21:41;;;;;;;13.23;4.43;;;;;;;23.06;49.54;99936.70;1712723;82;21781;-69
2022/08/28 02:24:08;;;;;;;14.47;5.37;;;;;;;23.06;49.50;99941.58;1714141;83;21063;-69
2022/08/28 02:26:34;;;;;;;18.27;6.00;;;;;;;23.06;49.59;99947.02;1702057;83;21047;-69
2022/08/28 02:29:01;;;;;;;19.17;5.63;;;;;;;23.05;50.19;99949.54;1702341;83;21107;-69
2022/08/28 02:31:27;;;;;;;17.67;5.50;;;;;;;23.05;50.63;99950.91;1713263;83;21123;-69
2022/08/28 02:33:54;;;;;;;14.50;4.70;;;;;;;23.05;50.91;99957.71;1707710;83;21023;-69
2022/08/28 02:36:21;;;;;;;13.10;5.70;;;;;;;23.04;50.91;99956.14;1701827;83;21443;-69
2022/08/28 02:38:49;;;;;;;19.17;6.10;;;;;;;23.01;51.10;99961.52;1703048;83;21182;-70
2022/08/28 02:41:16;;;;;;;10.70;4.93;;;;;;;23.00;51.34;99962.09;1716191;83;21063;-70
2022/08/28 02:43:43;;;;;;;18.70;5.97;;;;;;;23.00;51.48;99964.81;1714309;82;21336;-69
2022/08/28 02:46:10;;;;;;;13.13;5.00;;;;;;;23.02;51.56;99961.72;1689773;83;21054;-69
2022/08/28 02:48:38;;;;;;;10.07;5.07;;;;;;;22.97;51.83;99964.16;1708181;83;21094;-69
2022/08/28 02:51:08;;;;;;;13.07;5.67;;;;;;;22.98;52.26;99968.45;1701974;83;20999;-69
2022/08/28 02:53:36;;;;;;;16.33;5.70;;;;;;;22.96;52.77;99973.45;1712367;83;21578;-70
2022/08/28 02:56:03;;;;;;;19.37;6.13;;;;;;;22.95;53.02;99978.69;1701242;83;21125;-69
2022/08/28 02:58:31;;;;;;;18.17;5.97;;;;;;;22.93;53.17;99981.78;1700146;83;21102;-69
2022/08/28 03:01:00;;;;;;;13.87;5.87;;;;;;;22.84;53.39;99994.77;1723388;82;21555;-69
2022/08/28 03:03:31;;;;;;;14.33;5.60;;;;;;;22.78;53.32;99994.80;1721939;82;21608;-68
2022/08/28 03:05:59;;;;;;;18.77;5.97;;;;;;;22.77;53.34;99996.50;1718015;82;21095;-67
2022/08/28 03:08:26;;;;;;;15.10;5.67;;;;;;;22.77;53.32;99995.14;1719946;82;21149;-66
2022/08/28 03:10:53;;;;;;;14.63;6.20;;;;;;;22.78;53.33;99998.89;1715613;82;21240;-68
2022/08/28 03:13:19;;;;;;;14.10;6.10;;;;;;;22.79;53.35;100003.77;1708591;82;21543;-68
2022/08/28 03:15:46;;;;;;;11.53;5.50;;;;;;;22.77;53.69;100006.84;1703782;83;21557;-67
2022/08/28 03:18:13;;;;;;;14.83;5.60;;;;;;;22.75;53.96;100011.06;1712163;83;21075;-68
2022/08/28 03:20:40;;;;;;;13.53;5.90;;;;;;;22.69;54.29;100014.03;1718992;82;21111;-68
2022/08/28 03:23:25;;;;;;;12.53;5.50;;;;;;;22.63;54.64;100016.02;1716525;83;21047;-68
2022/08/28 03:25:56;;;;;;;13.77;6.30;;;;;;;22.61;54.85;100016.95;1704008;82;21020;-68
2022/08/28 03:28:25;;;;;;;14.35;5.72;;;;;;;22.61;54.94;100021.81;1705538;82;21580;-66
2022/08/28 03:30:51;;;;;;;13.07;5.87;;;;;;;22.63;55.03;100020.09;1719932;82;21054;-67
2022/08/28 03:33:19;;;;;;;13.87;5.73;;;;;;;22.64;55.13;100017.61;1696663;84;21221;-66
2022/08/28 03:35:46;;;;;;;17.43;6.03;;;;;;;22.68;55.28;100024.71;1700943;84;21204;-68
2022/08/28 03:38:12;;;;;;;13.97;6.63;;;;;;;22.70;55.39;100021.08;1701494;84;21058;-68
2022/08/28 03:40:41;;;;;;;13.13;6.43;;;;;;;22.71;55.53;100027.31;1705270;83;21755;-69
2022/08/28 03:43:11;;;;;;;13.33;5.60;;;;;;;22.70;55.93;100030.61;1702938;83;20978;-69
2022/08/28 03:45:38;;;;;;;12.93;5.90;;;;;;;22.64;56.53;100032.58;1701711;84;21172;-68
2022/08/28 03:48:06;;;;;;;13.23;5.83;;;;;;;22.53;56.85;100042.39;1702112;83;21231;-69
2022/08/28 03:50:33;;;;;;;13.40;5.70;;;;;;;22.39;57.23;100036.02;1693988;83;21081;-68
2022/08/28 03:53:00;;;;;;;15.47;6.17;;;;;;;22.28;57.84;100048.53;1707330;83;21182;-67
2022/08/28 03:55:27;;;;;;;15.20;6.20;;;;;;;22.08;58.51;100042.95;1709560;83;21099;-68
2022/08/28 03:57:54;;;;;;;15.83;7.10;;;;;;;21.96;59.15;100040.27;1701532;83;21214;-68
2022/08/28 04:00:21;;;;;;;13.27;6.10;;;;;;;21.88;59.69;100042.02;1700645;82;21524;-69
2022/08/28 04:02:47;;;;;;;15.73;6.47;;;;;;;21.79;59.87;100044.08;1699108;84;20982;-69
2022/08/28 04:05:16;;;;;;;13.87;5.87;;;;;;;21.71;60.00;100051.22;1729802;81;21034;-68
2022/08/28 04:07:43;;;;;;;16.93;6.13;;;;;;;21.64;59.82;100046.94;1726464;83;21090;-68
2022/08/28 04:10:11;;;;;;;15.80;6.57;;;;;;;21.64;59.68;100044.79;1710833;82;21312;-68
2022/08/28 04:12:38;;;;;;;15.80;6.60;;;;;;;21.60;59.80;100047.98;1716653;82;21033;-68
2022/08/28 04:15:06;;;;;;;21.07;7.27;;;;;;;21.56;59.78;100041.08;1714784;82;21036;-68
2022/08/28 04:17:32;;;;;;;16.13;7.03;;;;;;;21.57;59.70;100035.08;1709578;82;21047;-69
2022/08/28 04:19:59;;;;;;;17.97;6.90;;;;;;;21.57;59.74;100034.50;1714289;82;20996;-69
2022/08/28 04:22:28;;;;;;;16.53;6.70;;;;;;;21.61;59.75;100023.73;1713948;82;21142;-68
2022/08/28 04:24:55;;;;;;;19.70;7.40;;;;;;;21.68;59.57;100015.20;1710442;82;21118;-68
2022/08/28 04:27:21;;;;;;;21.87;7.80;;;;;;;21.75;59.42;100019.52;1708115;82;21502;-68
2022/08/28 04:29:48;;;;;;;16.00;7.33;;;;;;;21.84;59.36;100023.42;1724094;82;21474;-69
2022/08/28 04:32:15;;;;;;;21.43;7.23;;;;;;;21.88;59.39;100018.91;1690650;83;21062;-69
2022/08/28 04:34:42;;;;;;;18.87;7.57;;;;;;;21.93;59.19;100015.13;1704319;82;21175;-69
2022/08/28 04:37:08;;;;;;;23.43;7.70;;;;;;;21.98;58.92;100013.51;1690318;83;21022;-69
2022/08/28 04:39:35;;;;;;;16.10;7.50;;;;;;;22.02;58.90;100013.06;1705737;83;21144;-69
2022/08/28 04:42:02;;;;;;;20.63;7.97;;;;;;;22.04;58.37;100006.69;1702780;83;21031;-69
2022/08/28 04:44:29;;;;;;;22.83;7.63;;;;;;;22.05;58.13;100000.70;1699256;83;21529;-69
2022/08/28 04:46:56;;;;;;;20.20;7.83;;;;;;;22.12;57.86;99997.59;1701588;83;21224;-69
2022/08/28 04:49:22;;;;;;;17.57;7.97;;;;;;;22.17;57.62;99997.36;1706279;82;21133;-70
2022/08/28 04:51:49;;;;;;;19.20;7.83;;;;;;;22.29;57.45;99994.36;1701021;83;21051;-69
2022/08/28 04:54:15;;;;;;;18.70;7.97;;;;;;;22.40;57.16;99992.70;1705883;82;21027;-70
2022/08/28 04:56:42;;;;;;;23.13;8.50;;;;;;;22.49;56.88;99994.67;1704006;83;21519;-70
2022/08/28 04:59:10;;;;;;;18.77;8.37;;;;;;;22.53;56.68;99992.83;1702500;82;21563;-69
2022/08/28 05:01:40;;;;;;;19.03;9.20;;;;;;;22.62;56.33;99995.39;1709787;82;21525;-69
2022/08/28 05:04:06;;;;;;;17.63;8.83;;;;;;;22.70;56.26;99994.41;1700170;82;21067;-70
2022/08/28 05:06:33;;;;;;;21.27;10.20;;;;;;;22.72;56.19;99998.94;1699534;82;21115;-70
2022/08/28 05:09:01;;;;;;;22.10;9.73;;;;;;;22.76;56.30;99993.58;1706517;83;21037;-70
2022/08/28 05:11:29;;;;;;;21.77;9.73;;;;;;;22.85;56.24;100005.08;1710540;83;21293;-69
2022/08/28 05:13:56;;;;;;;19.03;9.10;;;;;;;22.91;56.62;100011.84;1698763;84;21535;-69
2022/08/28 05:16:23;;;;;;;22.20;9.57;;;;;;;22.99;56.71;100027.22;1700701;84;21036;-69
2022/08/28 05:18:49;;;;;;;19.43;8.20;;;;;;;23.06;56.57;100021.93;1701209;84;21057;-69
2022/08/28 05:21:21;;;;;;;21.47;8.83;;;;;;;23.12;56.35;100016.44;1700588;84;21138;-70
2022/08/28 05:23:51;;;;;;;13.63;8.00;;;;;;;23.20;56.38;100024.77;1675465;84;21891;-69
2022/08/28 05:26:18;;;;;;;19.40;7.73;;;;;;;23.28;56.34;100027.88;1698005;84;21141;-68
2022/08/28 05:28:47;;;;;;;16.13;7.53;;;;;;;23.34;56.25;100024.52;1690175;83;21011;-69
2022/08/28 05:31:18;;;;;;;18.43;7.70;;;;;;;23.39;56.00;100020.14;1703834;83;21026;-69
2022/08/28 05:33:46;;;;;;;14.57;7.43;;;;;;;23.33;56.00;100014.78;1709711;83;21505;-69
2022/08/28 05:36:13;;;;;;;15.83;8.57;;;;;;;23.28;56.13;100015.62;1703548;84;21081;-69
2022/08/28 05:38:40;;;;;;;16.67;7.90;;;;;;;23.31;56.37;100019.00;1710772;83;21052;-70
2022/08/28 05:41:07;;;;;;;17.83;7.47;;;;;;;23.36;56.47;100018.16;1713208;82;21055;-69
2022/08/28 05:43:34;;;;;;;17.47;7.90;;;;;;;23.38;56.42;100021.88;1715954;83;20976;-69
2022/08/28 05:46:08;;;;;;;18.63;8.47;;;;;;;23.37;56.51;100029.27;1719167;83;20966;-68
2022/08/28 05:48:34;;;;;;;17.10;7.97;;;;;;;23.41;56.72;100031.48;1718038;83;21239;-70
2022/08/28 05:51:09;;;;;;;18.93;7.60;;;;;;;23.47;56.74;100029.28;1719451;83;20971;-70
2022/08/28 05:53:40;;;;;;;20.43;8.63;;;;;;;23.49;56.67;100029.70;1709851;83;20983;-70
2022/08/28 05:56:14;;;;;;;18.77;8.50;;;;;;;23.52;56.55;100030.92;1713445;83;21111;-68
2022/08/28 05:58:41;;;;;;;17.70;8.43;;;;;;;23.55;56.58;100034.30;1707693;83;21007;-69
2022/08/28 06:01:15;;;;;;;17.73;7.30;;;;;;;23.57;56.74;100038.25;1698072;84;21115;-70
2022/08/28 06:03:45;;;;;;;14.10;7.30;;;;;;;23.56;57.08;100040.77;1704203;83;21018;-69
2022/08/28 06:06:11;;;;;;;14.90;7.47;;;;;;;23.50;57.47;100040.84;1704178;84;21058;-70
2022/08/28 06:08:39;;;;;;;17.40;8.03;;;;;;;23.47;57.59;100042.91;1706125;82;21034;-69
2022/08/28 06:11:06;;;;;;;15.70;7.50;;;;;;;23.41;57.52;100038.88;1704101;84;21062;-70
2022/08/28 06:13:33;;;;;;;17.53;7.73;;;;;;;23.41;57.23;100035.58;1716418;83;21313;-70
2022/08/28 06:15:59;;;;;;;15.23;7.53;;;;;;;23.45;57.14;100042.47;1716961;83;21004;-69
2022/08/28 06:18:26;;;;;;;15.00;7.53;;;;;;;23.49;57.18;100046.63;1708011;82;21088;-69
2022/08/28 06:20:53;;;;;;;16.93;7.77;;;;;;;23.52;56.84;100046.70;1710941;82;21003;-70
2022/08/28 06:23:20;;;;;;;15.10;7.60;;;;;;;23.54;56.68;100045.00;1714702;83;21268;-68
2022/08/28 06:25:50;;;;;;;14.13;7.63;;;;;;;23.59;57.02;100046.87;1709127;83;21261;-70
2022/08/28 06:28:21;;;;;;;13.03;7.27;;;;;;;23.59;57.23;100056.42;1697399;84;21413;-70
2022/08/28 06:30:50;;;;;;;15.67;8.20;;;;;;;23.54;57.35;100058.63;1715272;83;21581;-70
2022/08/28 06:33:17;;;;;;;12.90;8.03;;;;;;;23.50;57.38;100051.73;1696634;83;21029;-69
2022/08/28 06:35:48;;;;;;;16.50;8.20;;;;;;;23.50;57.40;100051.73;1696328;83;21648;-71
2022/08/28 06:38:16;;;;;;;18.33;8.00;;;;;;;23.51;57.65;100057.39;1689000;84;21215;-70
2022/08/28 06:40:49;;;;;;;17.97;7.87;;;;;;;23.55;57.52;100054.75;1689937;85;21019;-69
2022/08/28 06:43:16;;;;;;;14.77;7.47;;;;;;;23.68;57.26;100059.50;1703212;83;21200;-69
2022/08/28 06:45:45;;;;;;;21.00;8.70;;;;;;;23.79;57.20;100063.26;1692405;83;21083;-69
2022/08/28 06:48:18;;;;;;;14.23;7.20;;;;;;;23.87;56.39;100065.00;1718914;83;20952;-70
2022/08/28 06:50:50;;;;;;;17.40;7.60;;;;;;;23.94;56.47;100063.77;1718891;83;21199;-69
2022/08/28 06:53:20;;;;;;;12.35;7.78;;;;;;;24.01;56.12;100061.77;1706432;83;21095;-70
2022/08/28 06:56:08;;;;;;;16.60;7.50;;;;;;;24.06;55.91;100058.76;1690288;84;21039;-68
2022/08/28 06:58:39;;;;;;;19.67;8.07;;;;;;;24.02;55.56;100066.88;1697815;84;21066;-69
2022/08/28 07:01:11;;;;;;;15.48;8.05;;;;;;;24.02;55.52;100060.06;1692911;83;20948;-69
2022/08/28 07:03:39;;;;;;;17.33;7.73;;;;;;;24.10;55.49;100055.52;1706447;83;21790;-70
2022/08/28 07:06:07;;;;;;;14.47;7.10;;;;;;;24.23;55.28;100054.80;1719033;83;21576;-70
2022/08/28 07:08:34;;;;;;;16.03;7.73;;;;;;;24.32;55.09;100064.91;1718496;83;21039;-72
2022/08/28 07:11:22;;;;;;;17.40;7.80;;;;;;;24.33;54.92;100066.48;1710815;83;21123;-69
2022/08/28 07:13:48;;;;;;;17.67;8.10;;;;;;;24.30;54.86;100067.20;1698004;84;20972;-69
2022/08/28 07:16:17;;;;;;;16.40;7.77;;;;;;;24.32;54.95;100066.27;1689947;84;21530;-69
2022/08/28 07:18:45;;;;;;;14.97;7.83;;;;;;;24.41;54.92;100061.96;1697783;84;21431;-69
2022/08/28 07:21:12;;;;;;;15.13;8.07;;;;;;;24.50;54.65;100059.80;1696091;83;21096;-70
2022/08/28 07:23:41;;;;;;;16.67;8.30;;;;;;;24.60;54.41;100059.77;1690098;85;20972;-70
2022/08/28 07:26:11;;;;;;;18.83;8.03;;;;;;;24.73;54.37;100058.44;1690187;84;20964;-69
2022/08/28 07:28:38;;;;;;;17.50;8.30;;;;;;;24.91;54.14;100061.45;1694909;83;21870;-70
2022/08/28 07:31:09;;;;;;;15.47;7.80;;;;;;;25.08;53.92;100057.44;1710370;83;21520;-70
2022/08/28 07:33:38;;;;;;;15.28;8.00;;;;;;;25.26;53.14;100062.02;1718822;83;21067;-70
2022/08/28 07:36:07;;;;;;;16.63;7.40;;;;;;;25.47;52.59;100053.94;1718818;83;21085;-68
2022/08/28 07:38:37;;;;;;;15.93;7.42;;;;;;;25.65;52.23;100050.84;1707448;83;21072;-70
2022/08/28 07:41:17;;;;;;;13.97;6.80;;;;;;;25.81;51.63;100048.53;1697695;84;21784;-69
2022/08/28 07:46:30;;;;;;;14.03;6.63;;;;;;;26.13;51.20;100047.55;1693170;83;21031;-71
2022/08/28 07:48:57;;;;;;;15.60;6.80;;;;;;;26.27;50.59;100049.05;1694567;83;21047;-71
2022/08/28 07:51:25;;;;;;;16.43;6.63;;;;;;;26.27;49.84;100046.31;1690141;84;21534;-68
2022/08/28 07:53:56;;;;;;;14.97;7.03;;;;;;;26.36;49.96;100047.39;1694331;83;21581;-70
2022/08/28 07:56:24;;;;;;;13.03;6.03;;;;;;;26.53;49.57;100047.38;1712315;83;21067;-70
2022/08/28 07:58:51;;;;;;;14.13;6.30;;;;;;;26.73;48.85;100052.84;1697916;84;21058;-69
2022/08/28 08:01:18;;;;;;;14.53;6.57;;;;;;;26.98;48.34;100044.02;1689978;84;20980;-70
2022/08/28 08:03:45;;;;;;;11.50;6.10;;;;;;;27.24;47.81;100043.83;1690014;84;21008;-68
2022/08/28 08:06:14;;;;;;;14.13;5.77;;;;;;;27.52;47.29;100052.81;1703866;83;21292;-70
2022/08/28 08:08:41;;;;;;;14.50;6.23;;;;;;;27.79;45.66;100049.83;1695928;83;20963;-71
2022/08/28 08:11:11;;;;;;;15.87;6.80;;;;;;;28.08;44.87;100046.59;1718798;83;21612;-71
2022/08/28 08:13:38;;;;;;;15.20;6.47;;;;;;;28.26;44.51;100045.25;1717705;83;20976;-73
2022/08/28 08:16:11;;;;;;;14.70;5.97;;;;;;;28.33;43.53;100045.84;1695305;83;21055;-70
2022/08/28 08:18:39;;;;;;;15.20;6.73;;;;;;;28.46;43.90;100041.02;1697716;84;21210;-69
2022/08/28 08:21:08;;;;;;;14.83;6.07;;;;;;;28.71;43.60;100045.73;1690207;84;21129;-70
2022/08/28 08:23:37;;;;;;;12.65;6.25;;;;;;;28.92;43.38;100041.61;1711309;83;21204;-71
2022/08/28 08:26:07;;;;;;;13.70;6.47;;;;;;;29.01;43.41;100041.22;1690127;84;21181;-71
2022/08/28 08:28:36;;;;;;;11.88;6.47;;;;;;;29.11;42.76;100039.63;1702590;83;21062;-70
2022/08/28 08:31:13;;;;;;;12.23;6.33;;;;;;;29.23;42.26;100035.09;1718688;83;21154;-70
2022/08/28 08:33:43;;;;;;;12.90;6.03;;;;;;;29.27;41.36;100026.24;1700402;83;20960;-71
2022/08/28 08:36:11;;;;;;;11.07;5.80;;;;;;;29.17;41.57;100022.33;1697933;84;21046;-71
2022/08/28 08:38:38;;;;;;;13.47;5.70;;;;;;;29.08;41.28;100023.92;1690080;84;21032;-71
2022/08/28 08:41:10;;;;;;;15.33;6.40;;;;;;;28.92;41.51;100020.18;1692391;83;21130;-70
2022/08/28 08:43:57;;;;;;;12.87;6.97;;;;;;;28.88;41.66;100018.03;1682633;84;21214;-72
2022/08/28 08:46:41;;;;;;;21.30;7.03;;;;;;;28.81;42.15;100018.83;1712290;83;21562;-71
2022/08/28 08:49:22;;;;;;;14.03;6.53;;;;;;;28.80;42.57;100021.39;1719039;83;20987;-71
2022/08/28 08:52:12;;;;;;;15.97;6.63;;;;;;;28.78;43.08;100025.11;1700907;83;21055;-71
2022/08/28 08:54:43;;;;;;;15.20;5.70;;;;;;;28.70;42.56;100020.22;1697898;84;21126;-70
2022/08/28 08:57:13;;;;;;;13.50;5.97;;;;;;;28.75;42.62;100017.05;1689823;84;21514;-70
2022/08/28 08:59:40;;;;;;;14.23;6.80;;;;;;;28.83;42.63;100020.60;1696154;83;21024;-70
2022/08/28 09:02:17;;;;;;;14.20;5.67;;;;;;;28.98;42.45;100017.23;1697097;83;21035;-72
2022/08/28 09:04:58;;;;;;;14.07;6.00;;;;;;;29.04;41.46;100019.80;1718832;83;20964;-70
2022/08/28 09:07:42;;;;;;;16.45;6.00;;;;;;;28.83;41.75;100017.85;1720033;83;21639;-70
2022/08/28 09:10:18;;;;;;;14.80;5.93;;;;;;;28.77;41.97;100021.39;1702239;82;21041;-70
2022/08/28 09:12:53;;;;;;;12.40;5.53;;;;;;;28.85;42.01;100016.85;1713138;83;21058;-70
2022/08/28 09:15:33;;;;;;;9.07;4.23;;;;;;;28.84;41.62;100022.75;1706141;83;21068;-70
2022/08/28 09:18:21;;;;;;;17.10;5.90;;;;;;;28.89;40.91;100022.34;1718702;83;21447;-69
2022/08/28 09:20:53;;;;;;;16.53;5.50;;;;;;;28.91;40.46;100024.90;1718647;83;21004;-70
2022/08/28 09:23:22;;;;;;;14.97;5.60;;;;;;;29.02;38.71;100027.66;1718862;83;21139;-69
2022/08/28 09:26:00;;;;;;;20.87;5.90;;;;;;;29.11;38.47;100023.91;1718801;83;20964;-72
2022/08/28 09:28:38;;;;;;;20.67;6.27;;;;;;;29.29;37.87;100015.64;1714600;83;21059;-71
2022/08/28 09:31:14;;;;;;;16.30;5.37;;;;;;;29.47;36.92;100015.56;1689981;84;21028;-71
2022/08/28 09:33:45;;;;;;;14.13;4.90;;;;;;;29.55;36.54;100014.94;1690033;84;20971;-71
2022/08/28 09:36:37;;;;;;;11.43;5.60;;;;;;;29.61;36.28;100016.91;1697912;83;21123;-71
2022/08/28 09:39:28;;;;;;;16.30;6.17;;;;;;;29.71;36.84;100018.64;1695393;83;21050;-71
2022/08/28 09:45:22;;;;;;;18.43;5.47;;;;;;;29.92;36.19;100018.55;1690139;84;21071;-71
2022/08/28 09:47:57;;;;;;;20.13;6.30;;;;;;;30.00;35.36;100014.56;1704076;83;20992;-71
2022/08/28 09:50:40;;;;;;;18.67;5.97;;;;;;;30.07;35.95;100014.51;1689982;84;21652;-70
2022/08/28 09:53:15;;;;;;;15.47;5.37;;;;;;;30.11;34.83;100013.14;1697397;83;21039;-71
2022/08/28 09:55:56;;;;;;;18.53;5.70;;;;;;;29.95;33.53;100015.59;1695548;84;21585;-71
2022/08/28 09:58:35;;;;;;;15.40;5.17;;;;;;;29.79;33.29;100018.81;1697823;84;21102;-70
2022/08/28 10:01:27;;;;;;;17.20;5.10;;;;;;;29.73;32.92;100015.69;1676309;84;20964;-70
2022/08/28 10:04:27;;;;;;;13.00;5.37;;;;;;;29.73;33.15;100015.69;1701582;83;21229;-72
2022/08/28 10:07:05;;;;;;;13.97;5.27;;;;;;;29.92;33.07;100024.06;1681910;84;20991;-72
2022/08/28 10:09:50;;;;;;;13.37;4.80;;;;;;;30.15;32.57;100016.05;1710452;83;20992;-71
2022/08/28 10:12:34;;;;;;;17.73;5.10;;;;;;;30.37;31.56;100014.53;1696284;84;21062;-71
2022/08/28 10:15:19;;;;;;;15.23;4.83;;;;;;;30.49;32.29;100018.19;1696143;83;21075;-71
2022/08/28 10:18:42;;;;;;;15.43;4.90;;;;;;;30.57;30.69;100007.91;1697621;84;21243;-72
2022/08/28 10:21:28;;;;;;;13.87;5.13;;;;;;;30.61;30.58;100001.17;1690100;84;21146;-71
2022/08/28 10:24:07;;;;;;;12.43;4.93;;;;;;;30.59;31.61;100003.54;1670276;84;21031;-71
2022/08/28 10:27:09;;;;;;;12.57;4.87;;;;;;;30.67;32.22;100000.71;1713426;83;21062;-72
2022/08/28 10:29:48;;;;;;;10.20;5.00;;;;;;;30.76;31.71;99998.27;1728651;83;21078;-72
2022/08/28 10:33:02;;;;;;;13.17;4.97;;;;;;;30.97;31.21;99995.35;1719036;83;21162;-72
2022/08/28 10:36:02;;;;;;;16.03;4.97;;;;;;;31.07;30.85;99997.81;1690138;84;21534;-72
2022/08/28 10:38:39;;;;;;;13.73;5.00;;;;;;;31.14;30.51;99992.82;1690334;84;21550;-71
2022/08/28 10:41:11;;;;;;;10.60;4.83;;;;;;;31.26;30.88;99988.13;1696052;83;21109;-71
2022/08/28 10:43:46;;;;;;;11.90;4.83;;;;;;;31.31;30.21;99986.31;1692009;83;21503;-72
2022/08/28 10:46:27;;;;;;;13.03;4.97;;;;;;;31.23;30.38;99980.09;1718653;83;22261;-72
2022/08/28 10:49:21;;;;;;;11.67;4.87;;;;;;;31.37;29.75;99981.16;1716100;83;21138;-73
2022/08/28 10:52:21;;;;;;;12.20;4.33;;;;;;;31.42;29.74;99980.08;1713326;83;21008;-72
2022/08/28 10:55:02;;;;;;;;;;;;;;;31.45;29.50;99983.39;1721774;83;21032;-71
2022/08/28 10:57:56;;;;;;;7.85;4.17;;;;;;;31.51;29.14;99994.16;1719006;82;20462;-72
2022/08/28 11:00:25;;;;;;;9.30;3.70;;;;;;;31.50;27.65;99989.84;1699723;83;21110;-71
2022/08/28 11:02:56;;;;;;;12.10;4.13;;;;;;;31.48;27.73;99990.08;1717541;83;21024;-73
2022/08/28 11:05:30;;;;;;;11.00;4.27;;;;;;;31.43;27.24;99990.55;1718747;83;21118;-71
2022/08/28 11:08:03;;;;;;;10.13;4.23;;;;;;;31.40;27.52;99993.53;1715850;83;21914;-72
2022/08/28 11:10:47;;;;;;;11.77;4.67;;;;;;;31.33;27.89;99989.48;1718887;83;21196;-72
2022/08/28 11:13:43;;;;;;;10.80;4.43;;;;;;;31.34;27.84;99987.50;1718619;83;21341;-71
2022/08/28 11:16:23;;;;;;;11.40;4.67;;;;;;;31.33;27.89;99990.05;1720213;82;21035;-71
2022/08/28 11:19:23;;;;;;;10.70;4.30;;;;;;;31.33;27.78;99995.57;1713196;83;21082;-73
2022/08/28 11:22:14;;;;;;;11.63;4.63;;;;;;;31.21;27.68;99998.25;1718948;83;21056;-72
2022/08/28 11:24:46;;;;;;;10.73;4.70;;;;;;;31.05;27.72;99992.70;1718773;83;20959;-73
2022/08/28 11:27:31;;;;;;;11.80;4.70;;;;;;;30.89;28.14;99988.33;1684072;83;21138;-72
2022/08/28 11:30:15;;;;;;;10.97;4.57;;;;;;;30.86;27.65;99996.04;1718967;83;21016;-71
2022/08/28 11:32:55;;;;;;;9.97;3.83;;;;;;;30.88;27.55;99994.27;1718846;83;20988;-71
2022/08/28 11:35:37;;;;;;;8.85;4.17;;;;;;;30.98;28.13;99992.77;1717068;83;21127;-72
2022/08/28 11:38:05;;;;;;;8.97;3.90;;;;;;;31.16;27.85;99998.69;1689184;84;21089;-73
2022/08/28 11:40:40;;;;;;;9.77;4.20;;;;;;;31.38;27.67;99999.27;1707538;83;21621;-73
2022/08/28 11:43:19;;;;;;;9.87;3.80;;;;;;;31.59;27.24;99996.26;1694314;84;21108;-71
2022/08/28 11:46:00;;;;;;;11.60;4.43;;;;;;;31.77;25.97;99998.77;1687533;84;21082;-72
2022/08/28 11:48:41;;;;;;;11.20;3.67;;;;;;;31.80;26.10;99994.41;1701978;84;21027;-72
2022/08/28 11:51:18;;;;;;;7.40;3.73;;;;;;;31.83;25.95;99999.09;1700842;84;21019;-72